createdAt,value
2023-01-07T00:01:06.312Z,21.03
2023-01-07T00:03:34.737Z,20.57
2023-01-07T00:06:03.690Z,20.93
2023-01-07T00:08:32.525Z,19.67
2023-01-07T00:11:02.804Z,19.27
2023-01-07T00:13:30.827Z,19.63
2023-01-07T00:15:59.677Z,19.43
2023-01-07T00:18:29.197Z,21.10
2023-01-07T00:20:58.799Z,19.50
2023-01-07T00:23:27.193Z,18.30
2023-01-07T00:26:02.065Z,20.03
2023-01-07T00:28:30.070Z,19.63
2023-01-07T00:31:01.289Z,18.20
2023-01-07T00:33:31.185Z,21.53
2023-01-07T00:36:03.194Z,18.17
2023-01-07T00:38:31.198Z,19.17
2023-01-07T00:40:59.289Z,17.00
2023-01-07T00:43:27.679Z,16.70
2023-01-07T00:45:55.842Z,15.60
2023-01-07T00:48:24.117Z,16.23
2023-01-07T00:50:54.493Z,16.57
2023-01-07T00:53:22.983Z,15.33
2023-01-07T00:55:51.937Z,14.60
2023-01-07T00:58:22.277Z,15.40
2023-01-07T01:00:50.721Z,15.40
2023-01-07T01:03:18.829Z,17.07
2023-01-07T01:05:46.953Z,14.33
2023-01-07T01:08:17.997Z,13.23
2023-01-07T01:10:46.182Z,13.37
2023-01-07T01:13:18.097Z,13.37
2023-01-07T01:15:47.436Z,12.77
2023-01-07T01:18:16.508Z,13.13
2023-01-07T01:20:44.530Z,12.60
2023-01-07T01:23:12.582Z,12.70
2023-01-07T01:25:41.965Z,13.50
2023-01-07T01:28:09.953Z,19.63
2023-01-07T01:30:38.106Z,12.43
2023-01-07T01:33:06.125Z,12.03
2023-01-07T01:35:34.064Z,13.40
2023-01-07T01:38:02.240Z,13.13
2023-01-07T01:40:32.815Z,13.23
2023-01-07T01:43:02.275Z,12.77
2023-01-07T01:45:31.251Z,12.80
2023-01-07T01:48:04.434Z,12.80
2023-01-07T01:50:38.350Z,13.23
2023-01-07T01:53:11.953Z,12.13
2023-01-07T01:55:44.665Z,12.10
2023-01-07T01:58:17.556Z,10.93
2023-01-07T02:00:46.035Z,12.47
2023-01-07T02:03:17.830Z,12.60
2023-01-07T02:05:47.403Z,11.20
2023-01-07T02:08:21.972Z,11.33
2023-01-07T02:10:59.543Z,11.10
2023-01-07T02:13:39.124Z,11.63
2023-01-07T02:16:17.978Z,11.47
2023-01-07T02:19:16.487Z,12.10
2023-01-07T02:21:57.208Z,10.97
2023-01-07T02:24:55.044Z,10.87
2023-01-07T02:27:46.293Z,10.43
2023-01-07T02:30:41.087Z,10.73
2023-01-07T02:33:38.802Z,11.10
2023-01-07T02:36:16.995Z,11.20
2023-01-07T02:39:01.843Z,11.40
2023-01-07T02:41:40.453Z,11.27
2023-01-07T02:44:21.290Z,11.23
2023-01-07T02:46:57.231Z,10.80
2023-01-07T02:49:25.209Z,11.27
2023-01-07T02:51:54.580Z,10.53
2023-01-07T02:54:25.292Z,11.13
2023-01-07T02:57:33.306Z,12.50
2023-01-07T03:00:15.071Z,16.50
2023-01-07T03:03:03.000Z,24.37
2023-01-07T03:05:58.634Z,34.30
2023-01-07T03:08:44.254Z,38.07
2023-01-07T03:11:13.285Z,53.57
2023-01-07T03:13:48.547Z,54.33
2023-01-07T03:16:22.972Z,41.23
2023-01-07T03:18:57.073Z,28.63
2023-01-07T03:21:28.729Z,24.87
2023-01-07T03:23:59.994Z,23.23
2023-01-07T03:26:32.411Z,15.77
2023-01-07T03:29:02.991Z,16.10
2023-01-07T03:31:32.365Z,15.00
2023-01-07T03:34:04.805Z,12.93
2023-01-07T03:36:38.123Z,10.67
2023-01-07T03:39:10.800Z,10.10
2023-01-07T03:41:53.735Z,9.50
2023-01-07T03:44:21.882Z,8.53
2023-01-07T03:46:50.159Z,8.17
2023-01-07T03:49:18.200Z,8.37
2023-01-07T03:51:46.710Z,7.77
2023-01-07T03:54:16.204Z,7.80
2023-01-07T03:56:44.366Z,7.47
2023-01-07T03:59:12.440Z,7.83
2023-01-07T04:01:40.524Z,7.07
2023-01-07T04:04:08.727Z,7.57
2023-01-07T04:06:36.741Z,6.70
2023-01-07T04:09:04.969Z,6.60
2023-01-07T04:11:34.387Z,6.50
2023-01-07T04:14:02.441Z,6.63
2023-01-07T04:16:30.677Z,6.80
2023-01-07T04:18:58.745Z,6.17
2023-01-07T04:21:26.743Z,7.17
2023-01-07T04:23:54.708Z,7.70
2023-01-07T04:26:22.670Z,8.10
2023-01-07T04:28:52.024Z,7.23
2023-01-07T04:31:20.105Z,7.33
2023-01-07T04:33:48.108Z,7.50
2023-01-07T04:36:16.490Z,7.13
2023-01-07T04:38:44.473Z,6.57
2023-01-07T04:41:12.407Z,6.40
2023-01-07T04:43:40.363Z,6.70
2023-01-07T04:46:09.906Z,7.83
2023-01-07T04:48:37.978Z,6.73
2023-01-07T04:51:06.221Z,6.70
2023-01-07T04:53:34.286Z,6.03
2023-01-07T04:56:02.244Z,5.70
2023-01-07T04:58:30.234Z,5.33
2023-01-07T05:00:59.915Z,5.33
2023-01-07T05:03:29.304Z,5.30
2023-01-07T05:05:57.368Z,6.33
2023-01-07T05:08:25.389Z,6.10
2023-01-07T05:10:54.240Z,6.43
2023-01-07T05:13:24.200Z,6.63
2023-01-07T05:15:52.171Z,6.13
2023-01-07T05:18:20.165Z,6.03
2023-01-07T05:20:49.543Z,6.87
2023-01-07T05:23:17.527Z,6.60
2023-01-07T05:25:45.583Z,6.60
2023-01-07T05:28:13.546Z,6.10
2023-01-07T05:30:41.557Z,6.50
2023-01-07T05:33:09.598Z,6.10
2023-01-07T05:35:37.665Z,6.70
2023-01-07T05:38:07.154Z,6.80
2023-01-07T05:40:35.287Z,7.03
2023-01-07T05:43:03.363Z,6.97
2023-01-07T05:45:31.473Z,7.43
2023-01-07T05:47:59.530Z,6.77
2023-01-07T05:50:27.648Z,6.57
2023-01-07T05:52:55.634Z,6.43
2023-01-07T05:55:25.052Z,6.90
2023-01-07T05:57:53.000Z,6.43
2023-01-07T06:00:21.145Z,7.27
2023-01-07T06:02:49.124Z,7.70
2023-01-07T06:05:17.187Z,7.50
2023-01-07T06:07:45.158Z,7.80
2023-01-07T06:10:13.164Z,7.23
2023-01-07T06:12:44.922Z,6.97
2023-01-07T06:15:13.165Z,6.93
2023-01-07T06:17:41.233Z,7.20
2023-01-07T06:20:10.197Z,7.43
2023-01-07T06:22:38.210Z,9.53
2023-01-07T06:25:06.855Z,7.87
2023-01-07T06:27:34.827Z,11.20
2023-01-07T06:30:04.600Z,8.77
2023-01-07T06:32:32.799Z,8.40
2023-01-07T06:35:00.762Z,7.90
2023-01-07T06:37:28.764Z,14.90
2023-01-07T06:39:58.235Z,11.67
2023-01-07T06:42:26.343Z,9.70
2023-01-07T06:44:54.509Z,9.23
2023-01-07T06:47:28.222Z,7.83
2023-01-07T06:49:56.405Z,8.50
2023-01-07T06:52:25.300Z,8.03
2023-01-07T06:54:53.928Z,8.53
2023-01-07T06:57:25.288Z,9.07
2023-01-07T06:59:54.096Z,8.47
2023-01-07T07:02:25.667Z,7.20
2023-01-07T07:04:54.681Z,8.23
2023-01-07T07:07:24.139Z,8.37
2023-01-07T07:09:52.771Z,7.77
2023-01-07T07:12:23.436Z,7.93
2023-01-07T07:14:51.905Z,7.77
2023-01-07T07:17:20.806Z,7.60
2023-01-07T07:19:51.142Z,7.97
2023-01-07T07:22:20.260Z,7.57
2023-01-07T07:24:49.136Z,7.50
2023-01-07T07:27:20.837Z,7.47
2023-01-07T07:29:49.686Z,7.50
2023-01-07T07:32:18.264Z,7.20
2023-01-07T07:34:46.704Z,8.10
2023-01-07T07:37:19.403Z,9.20
2023-01-07T07:39:48.150Z,7.50
2023-01-07T07:42:16.776Z,8.50
2023-01-07T07:44:45.596Z,8.20
2023-01-07T07:47:15.634Z,8.47
2023-01-07T07:49:43.641Z,8.90
2023-01-07T07:52:12.013Z,7.83
2023-01-07T07:54:50.553Z,9.83
2023-01-07T07:57:18.799Z,8.60
2023-01-07T07:59:46.786Z,8.70
2023-01-07T08:02:15.666Z,8.17
2023-01-07T08:04:46.059Z,9.63
2023-01-07T08:07:15.231Z,9.77
2023-01-07T08:10:02.416Z,8.40
2023-01-07T08:12:30.503Z,8.73
2023-01-07T08:14:58.505Z,8.33
2023-01-07T08:17:26.508Z,7.77
2023-01-07T08:19:54.484Z,8.97
2023-01-07T08:22:22.437Z,7.77
2023-01-07T08:24:50.460Z,7.00
2023-01-07T08:27:20.032Z,7.47
2023-01-07T08:29:48.072Z,6.97
2023-01-07T08:32:16.427Z,6.73
2023-01-07T08:34:44.504Z,6.80
2023-01-07T08:37:15.277Z,7.23
2023-01-07T08:39:43.360Z,8.20
2023-01-07T08:42:11.567Z,8.90
2023-01-07T08:44:40.952Z,7.67
2023-01-07T08:47:08.971Z,7.40
2023-01-07T08:49:37.204Z,7.23
2023-01-07T08:52:05.551Z,7.50
2023-01-07T08:54:33.569Z,7.53
2023-01-07T08:57:01.717Z,7.90
2023-01-07T08:59:29.780Z,7.07
2023-01-07T09:01:59.298Z,6.63
2023-01-07T09:04:27.488Z,6.87
2023-01-07T09:06:55.613Z,6.70
2023-01-07T09:09:23.598Z,6.50
2023-01-07T09:11:51.593Z,7.27
2023-01-07T09:14:19.738Z,6.40
2023-01-07T09:16:47.928Z,6.47
2023-01-07T09:19:17.709Z,6.97
2023-01-07T09:21:47.285Z,7.93
2023-01-07T09:24:15.280Z,9.40
2023-01-07T09:26:43.782Z,7.90
2023-01-07T09:29:12.137Z,7.27
2023-01-07T09:31:40.216Z,6.77
2023-01-07T09:34:08.425Z,6.70
2023-01-07T09:36:37.812Z,6.80
2023-01-07T09:39:05.839Z,6.90
2023-01-07T09:41:42.655Z,7.20
2023-01-07T09:44:20.161Z,7.23
2023-01-07T09:46:51.402Z,6.83
2023-01-07T09:49:20.551Z,7.17
2023-01-07T09:51:55.805Z,6.87
2023-01-07T09:54:30.776Z,6.90
2023-01-07T09:56:58.949Z,6.80
2023-01-07T09:59:27.076Z,7.30
2023-01-07T10:02:01.737Z,7.50
2023-01-07T10:04:39.395Z,7.70
2023-01-07T10:07:25.031Z,8.00
2023-01-07T10:10:06.348Z,7.83
2023-01-07T10:12:41.837Z,8.33
2023-01-07T10:15:24.134Z,8.33
2023-01-07T10:18:06.871Z,8.97
2023-01-07T10:20:45.347Z,8.73
2023-01-07T10:23:21.750Z,8.93
2023-01-07T10:25:52.119Z,9.63
2023-01-07T10:28:24.047Z,8.60
2023-01-07T10:30:53.039Z,7.53
2023-01-07T10:33:25.393Z,8.00
2023-01-07T10:36:02.475Z,7.80
2023-01-07T10:38:36.406Z,7.10
2023-01-07T10:41:13.965Z,7.00
2023-01-07T10:46:48.763Z,6.80
2023-01-07T10:49:31.606Z,8.13
2023-01-07T10:52:13.817Z,6.77
2023-01-07T10:55:04.514Z,6.67
2023-01-07T10:57:36.064Z,6.30
2023-01-07T11:00:08.008Z,6.30
2023-01-07T11:02:36.035Z,6.60
2023-01-07T11:05:04.330Z,6.03
2023-01-07T12:12:34.699Z,6.57
2023-01-07T12:15:23.934Z,5.83
2023-01-07T12:18:49.509Z,6.03
2023-01-07T12:21:48.331Z,6.23
2023-01-07T12:24:56.781Z,10.70
2023-01-07T12:27:57.693Z,7.83
2023-01-07T12:31:07.696Z,7.17
2023-01-07T12:34:05.998Z,6.70
2023-01-07T12:38:55.626Z,9.53
2023-01-07T12:41:31.471Z,10.70
2023-01-07T12:44:03.697Z,6.47
2023-01-07T12:46:40.130Z,7.73
2023-01-07T12:49:14.167Z,10.40
2023-01-07T12:51:46.588Z,7.13
2023-01-07T12:54:21.396Z,5.97
2023-01-07T12:56:54.757Z,21.60
2023-01-07T12:59:45.579Z,7.90
2023-01-07T13:02:25.091Z,13.23
2023-01-07T13:05:04.913Z,8.60
2023-01-07T13:07:40.112Z,6.17
2023-01-07T13:10:17.708Z,6.63
2023-01-07T13:12:47.492Z,6.03
2023-01-07T13:15:26.864Z,6.33
2023-01-07T13:17:57.059Z,7.47
2023-01-07T13:20:53.912Z,11.20
2023-01-07T13:23:27.082Z,31.50
2023-01-07T13:26:20.915Z,12.07
2023-01-07T13:29:03.807Z,13.63
2023-01-07T13:32:24.747Z,10.83
2023-01-07T13:35:26.136Z,8.43
2023-01-07T13:38:14.495Z,7.47
2023-01-07T13:41:01.585Z,9.60
2023-01-07T13:43:43.639Z,27.97
2023-01-07T13:46:14.806Z,14.27
2023-01-07T13:48:49.645Z,9.53
2023-01-07T13:51:25.124Z,7.40
2023-01-07T13:53:53.252Z,6.33
2023-01-07T13:56:36.752Z,6.67
2023-01-07T13:59:30.072Z,7.57
2023-01-07T14:02:22.088Z,10.37
2023-01-07T14:05:04.260Z,7.10
2023-01-07T14:07:32.929Z,7.77
2023-01-07T14:10:00.971Z,7.10
2023-01-07T14:13:07.967Z,7.70
2023-01-07T14:16:06.293Z,7.97
2023-01-07T14:18:46.187Z,8.10
2023-01-07T14:21:36.856Z,13.73
2023-01-07T14:24:33.194Z,15.67
2023-01-07T14:27:11.559Z,8.93
2023-01-07T14:29:42.917Z,8.33
2023-01-07T14:32:27.009Z,7.40
2023-01-07T14:34:57.916Z,7.70
2023-01-07T14:37:35.563Z,7.83
2023-01-07T14:40:42.784Z,7.80
2023-01-07T14:43:48.052Z,8.50
2023-01-07T14:46:45.497Z,8.70
2023-01-07T14:50:04.184Z,9.27
2023-01-07T14:53:17.404Z,10.43
2023-01-07T14:56:02.120Z,10.73
2023-01-07T14:58:42.562Z,10.13
2023-01-07T15:01:38.059Z,10.93
2023-01-07T15:04:55.250Z,10.57
2023-01-07T15:07:28.087Z,10.03
2023-01-07T15:10:18.731Z,10.83
2023-01-07T15:13:09.003Z,11.67
2023-01-07T15:15:59.144Z,12.00
2023-01-07T15:18:27.235Z,10.97
2023-01-07T15:21:09.139Z,40.30
2023-01-07T15:23:46.517Z,21.90
2023-01-07T15:26:22.202Z,48.93
2023-01-07T15:28:56.019Z,27.40
2023-01-07T15:31:30.269Z,15.87
2023-01-07T15:34:11.945Z,22.00
2023-01-07T15:36:43.539Z,16.40
2023-01-07T15:39:20.774Z,34.50
2023-01-07T15:41:52.561Z,18.40
2023-01-07T15:44:24.639Z,14.40
2023-01-07T15:46:52.779Z,15.10
2023-01-07T15:49:23.628Z,13.83
2023-01-07T15:51:54.688Z,14.43
2023-01-07T15:54:35.421Z,21.00
2023-01-07T15:57:09.574Z,19.73
2023-01-07T15:59:42.608Z,18.53
2023-01-07T16:02:24.560Z,19.30
2023-01-07T16:04:57.112Z,29.20
2023-01-07T16:07:29.243Z,23.33
2023-01-07T16:09:58.677Z,21.33
2023-01-07T16:12:34.483Z,22.50
2023-01-07T16:15:04.693Z,19.60
2023-01-07T16:17:33.180Z,22.17
2023-01-07T16:20:11.449Z,22.17
2023-01-07T16:22:41.891Z,20.63
2023-01-07T16:25:15.220Z,21.77
2023-01-07T16:27:45.025Z,21.30
2023-01-07T16:30:16.323Z,19.90
2023-01-07T16:32:45.408Z,17.77
2023-01-07T16:35:19.832Z,17.57
2023-01-07T16:37:50.069Z,15.80
2023-01-07T16:40:24.049Z,16.10
2023-01-07T16:42:53.699Z,17.17
2023-01-07T16:45:28.386Z,16.20
2023-01-07T16:48:20.085Z,15.60
2023-01-07T16:50:49.931Z,14.87
2023-01-07T16:53:27.875Z,18.00
2023-01-07T16:56:10.748Z,16.20
2023-01-07T16:58:42.784Z,16.97
2023-01-07T17:01:12.133Z,17.57
2023-01-07T17:03:52.750Z,16.97
2023-01-07T17:06:25.876Z,17.07
2023-01-07T17:08:56.589Z,15.33
2023-01-07T17:11:30.688Z,16.00
2023-01-07T17:14:00.409Z,14.30
2023-01-07T17:16:33.047Z,16.23
2023-01-07T17:19:25.643Z,17.03
2023-01-07T17:21:54.391Z,26.57
2023-01-07T17:24:47.629Z,26.60
2023-01-07T17:27:26.980Z,26.33
2023-01-07T17:29:57.420Z,26.70
2023-01-07T17:32:25.505Z,25.27
2023-01-07T17:34:53.489Z,23.43
2023-01-07T17:37:21.596Z,22.80
2023-01-07T17:39:51.326Z,24.70
2023-01-07T17:42:42.385Z,156.03
2023-01-07T17:45:17.238Z,28.13
2023-01-07T17:47:46.456Z,25.93
2023-01-07T17:50:16.092Z,24.00
2023-01-07T17:52:46.897Z,25.97
2023-01-07T17:55:16.789Z,27.53
2023-01-07T17:57:45.160Z,26.13
2023-01-07T18:00:21.058Z,26.17
2023-01-07T18:02:49.638Z,24.90
2023-01-07T18:05:19.940Z,24.20
2023-01-07T18:07:48.564Z,24.90
2023-01-07T18:10:18.660Z,24.40
2023-01-07T18:12:46.304Z,23.17
2023-01-07T18:15:25.153Z,25.47
2023-01-07T18:17:54.070Z,25.83
2023-01-07T18:20:23.520Z,24.90
2023-01-07T18:22:54.398Z,59.30
2023-01-07T18:25:23.808Z,38.27
2023-01-07T18:27:53.284Z,28.97
2023-01-07T18:30:23.925Z,150.27
2023-01-07T18:32:53.886Z,43.87
2023-01-07T18:35:24.947Z,34.90
2023-01-07T18:37:53.340Z,37.20
2023-01-07T18:40:21.908Z,30.03
2023-01-07T18:42:50.606Z,39.70
2023-01-07T18:45:18.936Z,34.40
2023-01-07T18:47:48.595Z,32.10
2023-01-07T18:50:17.697Z,31.93
2023-01-07T18:52:45.680Z,29.73
2023-01-07T18:55:16.104Z,29.43
2023-01-07T18:57:44.401Z,27.77
2023-01-07T19:00:13.664Z,35.47
2023-01-07T19:02:42.001Z,38.40
2023-01-07T19:05:11.550Z,37.90
2023-01-07T19:07:39.679Z,33.27
2023-01-07T19:10:08.611Z,37.60
2023-01-07T19:12:36.630Z,35.13
2023-01-07T19:15:05.013Z,42.60
2023-01-07T19:17:33.090Z,33.70
2023-01-07T19:20:01.886Z,30.17
2023-01-07T19:22:31.283Z,32.13
2023-01-07T19:24:59.227Z,31.13
2023-01-07T19:27:27.287Z,71.00
2023-01-07T19:29:55.254Z,70.10
2023-01-07T19:32:23.354Z,51.43
2023-01-07T19:34:52.985Z,36.57
2023-01-07T19:37:22.087Z,32.63
2023-01-07T19:39:51.653Z,56.07
2023-01-07T19:42:19.662Z,50.73
2023-01-07T19:44:47.645Z,45.37
2023-01-07T19:47:17.198Z,32.50
2023-01-07T19:49:45.588Z,34.33
2023-01-07T19:52:13.766Z,34.60
2023-01-07T19:54:42.281Z,34.07
2023-01-07T19:57:11.939Z,32.87
2023-01-07T19:59:39.927Z,35.53
2023-01-07T20:02:08.163Z,35.73
2023-01-07T20:04:36.471Z,37.17
2023-01-07T20:07:04.616Z,54.43
2023-01-07T20:09:32.927Z,37.27
2023-01-07T20:12:01.096Z,37.70
2023-01-07T20:14:30.521Z,44.40
2023-01-07T20:16:58.662Z,43.43
2023-01-07T20:19:27.258Z,36.87
2023-01-07T20:21:55.217Z,36.17
2023-01-07T20:24:23.199Z,30.70
2023-01-07T20:26:53.189Z,33.23
2023-01-07T20:29:22.529Z,38.23
2023-01-07T20:31:51.926Z,37.37
2023-01-07T20:34:20.048Z,35.50
2023-01-07T20:36:48.020Z,31.33
2023-01-07T20:39:16.296Z,35.40
2023-01-07T20:41:44.527Z,36.07
2023-01-07T20:44:13.331Z,52.83
2023-01-07T20:46:41.895Z,162.43
2023-01-07T20:49:12.552Z,69.97
2023-01-07T20:51:40.853Z,35.93
2023-01-07T20:54:09.129Z,37.70
2023-01-07T20:56:37.321Z,39.77
2023-01-07T20:59:05.568Z,40.90
2023-01-07T21:01:33.953Z,42.77
2023-01-07T21:04:03.041Z,50.57
2023-01-07T21:06:32.737Z,51.53
2023-01-07T21:09:01.137Z,60.03
2023-01-07T21:11:29.177Z,47.00
2023-01-07T21:13:57.152Z,46.30
2023-01-07T21:16:26.063Z,48.30
2023-01-07T21:18:54.320Z,48.77
2023-01-07T21:21:25.319Z,45.73
2023-01-07T21:23:55.547Z,46.77
2023-01-07T21:26:26.101Z,50.40
2023-01-07T21:28:56.049Z,69.33
2023-01-07T21:31:25.192Z,64.97
2023-01-07T21:33:56.497Z,52.30
2023-01-07T21:36:25.935Z,51.27
2023-01-07T21:38:56.793Z,49.87
2023-01-07T21:41:25.647Z,47.63
2023-01-07T21:43:53.713Z,48.03
2023-01-07T21:46:22.603Z,47.00
2023-01-07T21:48:51.868Z,43.37
2023-01-07T21:51:22.221Z,42.63
2023-01-07T21:53:52.150Z,46.07
2023-01-07T21:56:21.740Z,46.80
2023-01-07T21:58:50.633Z,46.73
2023-01-07T22:01:20.111Z,47.07
2023-01-07T22:03:49.902Z,45.03
2023-01-07T22:06:20.819Z,47.67
2023-01-07T22:08:49.217Z,44.67
2023-01-07T22:11:18.982Z,44.83
2023-01-07T22:13:52.920Z,47.90
2023-01-07T22:16:21.474Z,49.30
2023-01-07T22:18:49.716Z,50.13
2023-01-07T22:21:18.667Z,60.10
2023-01-07T22:23:47.569Z,48.67
2023-01-07T22:26:17.658Z,47.07
2023-01-07T22:28:50.012Z,46.60
2023-01-07T22:31:22.303Z,44.70
2023-01-07T22:33:50.428Z,47.07
2023-01-07T22:36:23.181Z,49.13
2023-01-07T22:38:52.808Z,52.00
2023-01-07T22:41:20.999Z,45.23
2023-01-07T22:43:49.092Z,39.97
2023-01-07T22:46:22.908Z,39.30
2023-01-07T22:48:51.213Z,44.83
2023-01-07T22:51:25.014Z,45.20
2023-01-07T22:53:56.278Z,44.80
2023-01-07T22:56:24.699Z,45.00
2023-01-07T22:58:52.773Z,44.27
2023-01-07T23:01:22.512Z,43.83
2023-01-07T23:03:50.516Z,43.97
2023-01-07T23:06:18.720Z,44.47
2023-01-07T23:08:46.783Z,44.57
2023-01-07T23:11:35.289Z,46.47
2023-01-07T23:14:03.865Z,43.10
2023-01-07T23:16:33.524Z,42.03
2023-01-07T23:19:01.664Z,43.53
2023-01-07T23:21:31.509Z,45.30
2023-01-07T23:23:59.883Z,41.37
2023-01-07T23:26:27.991Z,42.13
2023-01-07T23:28:55.975Z,41.73
2023-01-07T23:31:24.070Z,41.23
2023-01-07T23:33:53.663Z,39.50
2023-01-07T23:36:21.627Z,38.30
2023-01-07T23:38:49.623Z,42.00
2023-01-07T23:41:18.280Z,42.67
2023-01-07T23:43:46.507Z,39.77
2023-01-07T23:46:14.599Z,39.30
2023-01-07T23:48:42.919Z,38.50
2023-01-07T23:51:14.503Z,38.93
2023-01-07T23:53:42.648Z,38.57
2023-01-07T23:56:10.953Z,35.87
2023-01-07T23:58:39.929Z,35.27
